Time;durP1;ratioP1;P1;durP2;ratioP2;P2;SDS_P1;SDS_P2;PMS_P1;PMS_P2;Temp;Humidity;BMP_temperature;BMP_pressure;BME280_temperature;BME280_humidity;BME280_pressure;Samples;Min_cycle;Max_cycle;Signal;HPM_P1;HPM_P2
2021/10/23 00:02:20;;;;;;;2.23;2.00;;;11.00;99.90;;;;;;4994313;28;20262;-54
2021/10/23 00:04:46;;;;;;;5.37;2.70;;;10.70;99.90;;;;;;4976246;28;20210;-54
2021/10/23 00:07:11;;;;;;;7.53;2.50;;;10.70;99.90;;;;;;4993617;28;20196;-54
2021/10/23 00:09:38;;;;;;;4.80;2.70;;;10.70;99.90;;;;;;4993765;28;20182;-53
2021/10/23 00:12:05;;;;;;;3.97;1.87;;;10.80;99.90;;;;;;5008337;28;20275;-56
2021/10/23 00:14:30;;;;;;;3.33;2.30;;;10.80;99.90;;;;;;5033426;28;20526;-53
2021/10/23 00:16:56;;;;;;;2.03;1.67;;;10.90;99.90;;;;;;5023099;28;20946;-56
2021/10/23 00:19:22;;;;;;;6.93;1.93;;;11.00;99.90;;;;;;5013024;28;20207;-52
2021/10/23 00:21:48;;;;;;;3.47;1.90;;;11.20;99.90;;;;;;5013007;28;20164;-55
2021/10/23 00:24:13;;;;;;;4.63;2.60;;;11.20;99.90;;;;;;5014238;28;20617;-55
2021/10/23 00:26:39;;;;;;;1.90;1.60;;;11.10;99.90;;;;;;5013075;28;20430;-55
2021/10/23 00:29:05;;;;;;;4.10;2.10;;;11.00;99.90;;;;;;5013478;28;20189;-54
2021/10/23 00:31:30;;;;;;;3.80;2.20;;;10.90;99.90;;;;;;5013383;28;20172;-57
2021/10/23 00:33:56;;;;;;;6.10;2.53;;;10.80;99.90;;;;;;5014352;28;20210;-56
2021/10/23 00:36:23;;;;;;;2.43;1.63;;;10.80;99.90;;;;;;5013185;28;20218;-53
2021/10/23 00:38:48;;;;;;;4.90;2.17;;;10.90;99.90;;;;;;5013138;28;20206;-56
2021/10/23 00:41:14;;;;;;;3.50;2.13;;;10.90;99.90;;;;;;5013542;28;20442;-54
2021/10/23 00:43:44;;;;;;;5.53;2.47;;;10.90;99.90;;;;;;5033116;28;20179;-57
2021/10/23 00:46:11;;;;;;;5.63;2.30;;;10.90;99.90;;;;;;5032600;28;20560;-57
2021/10/23 00:48:36;;;;;;;5.40;2.33;;;10.90;99.90;;;;;;5036687;28;20460;-54
2021/10/23 00:51:02;;;;;;;4.20;2.07;;;11.00;99.90;;;;;;5036576;28;20414;-57
2021/10/23 00:53:28;;;;;;;5.13;2.33;;;11.00;99.90;;;;;;5036410;28;20530;-53
2021/10/23 00:55:54;;;;;;;8.63;2.47;;;11.10;99.90;;;;;;5036434;28;20178;-54
2021/10/23 00:58:20;;;;;;;4.77;1.83;;;11.10;99.90;;;;;;5036549;28;20162;-54
2021/10/23 01:00:46;;;;;;;6.33;2.20;;;11.10;99.90;;;;;;5036855;28;20489;-53
2021/10/23 01:03:12;;;;;;;2.30;1.97;;;11.00;99.90;;;;;;5036529;28;20171;-55
2021/10/23 01:05:38;;;;;;;5.37;1.90;;;11.00;99.90;;;;;;5037061;28;20401;-54
2021/10/23 01:08:04;;;;;;;4.37;2.63;;;11.10;99.90;;;;;;5036550;28;20445;-56
2021/10/23 01:10:29;;;;;;;6.83;2.73;;;11.10;99.90;;;;;;5018531;28;20495;-57
2021/10/23 01:12:58;;;;;;;7.00;2.10;;;11.20;99.90;;;;;;5018720;28;20186;-57
2021/10/23 01:15:29;;;;;;;2.50;1.80;;;11.20;99.90;;;;;;5036236;28;20245;-57
2021/10/23 01:17:56;;;;;;;6.90;2.30;;;11.20;99.90;;;;;;5036448;28;20472;-53
2021/10/23 01:20:24;;;;;;;5.83;2.20;;;11.10;99.90;;;;;;5036683;28;20406;-56
2021/10/23 01:22:51;;;;;;;3.87;2.07;;;11.10;99.90;;;;;;5036309;28;20416;-55
2021/10/23 01:25:18;;;;;;;3.80;2.53;;;11.20;99.90;;;;;;5036492;28;20433;-58
2021/10/23 01:27:44;;;;;;;3.60;2.60;;;11.10;99.90;;;;;;5036541;28;20436;-54
2021/10/23 01:30:12;;;;;;;4.60;2.47;;;10.90;99.90;;;;;;5036066;28;20425;-57
2021/10/23 01:32:38;;;;;;;4.33;2.03;;;11.00;99.90;;;;;;5036066;28;20405;-53
2021/10/23 01:35:06;;;;;;;7.63;2.70;;;10.90;99.90;;;;;;5036236;28;20941;-57
2021/10/23 01:37:47;;;;;;;4.93;2.50;;;11.00;99.90;;;;;;5035864;28;20446;-56
2021/10/23 01:40:19;;;;;;;8.53;2.27;;;11.00;99.90;;;;;;5036394;28;20418;-57
2021/10/23 01:42:45;;;;;;;1.70;1.60;;;11.10;99.90;;;;;;5035754;28;20504;-55
2021/10/23 01:45:12;;;;;;;5.07;1.80;;;11.10;99.90;;;;;;5036524;28;20815;-55
2021/10/23 01:47:42;;;;;;;4.30;1.80;;;11.20;99.90;;;;;;5039419;28;20218;-55
2021/10/23 01:50:20;;;;;;;2.23;2.03;;;11.10;99.90;;;;;;5043363;28;20424;-57
2021/10/23 01:52:46;;;;;;;4.27;2.00;;;11.10;99.90;;;;;;5042660;28;20409;-54
2021/10/23 01:55:15;;;;;;;5.70;2.10;;;11.10;99.90;;;;;;5047540;28;20462;-58
2021/10/23 01:57:41;;;;;;;3.23;1.90;;;11.10;99.90;;;;;;5051571;28;20185;-57
2021/10/23 02:00:09;;;;;;;6.67;2.63;;;11.00;99.90;;;;;;5028632;28;20945;-58
2021/10/23 02:02:35;;;;;;;7.20;1.83;;;10.80;99.90;;;;;;5035122;28;20922;-58
2021/10/23 02:05:01;;;;;;;5.17;2.53;;;10.60;99.90;;;;;;5001074;28;20453;-56
2021/10/23 02:07:26;;;;;;;3.73;2.07;;;10.50;99.90;;;;;;4996416;28;20485;-58
2021/10/23 02:09:52;;;;;;;4.60;2.60;;;10.50;99.90;;;;;;4996100;28;20412;-53
2021/10/23 02:12:18;;;;;;;3.50;1.77;;;10.40;99.90;;;;;;4995854;28;20182;-53
2021/10/23 02:14:43;;;;;;;2.73;1.93;;;10.40;99.90;;;;;;5025010;28;20610;-57
2021/10/23 02:17:09;;;;;;;6.33;2.87;;;10.30;99.90;;;;;;5015321;28;20941;-53
2021/10/23 02:19:35;;;;;;;3.93;2.53;;;10.30;99.90;;;;;;5015670;28;20535;-54
2021/10/23 02:22:00;;;;;;;4.33;2.27;;;10.20;99.90;;;;;;5019227;28;20197;-54
2021/10/23 02:24:26;;;;;;;3.17;1.90;;;10.00;99.90;;;;;;5035613;28;20254;-53
2021/10/23 02:26:51;;;;;;;3.90;2.13;;;10.00;99.90;;;;;;5035858;28;20204;-57
2021/10/23 02:29:17;;;;;;;3.33;2.10;;;9.90;99.90;;;;;;5036196;28;20177;-54
2021/10/23 02:31:43;;;;;;;6.00;2.20;;;9.80;99.90;;;;;;5035828;28;20663;-53
2021/10/23 02:34:08;;;;;;;7.23;2.17;;;9.80;99.90;;;;;;5018298;28;20549;-56
2021/10/23 02:36:34;;;;;;;4.13;2.40;;;9.90;99.90;;;;;;5015870;28;20208;-53
2021/10/23 02:38:59;;;;;;;2.20;1.87;;;9.90;99.90;;;;;;5018266;28;20176;-54
2021/10/23 02:41:26;;;;;;;5.03;2.90;;;9.90;99.90;;;;;;5015417;28;20170;-57
2021/10/23 02:43:53;;;;;;;3.27;2.00;;;9.90;99.90;;;;;;5015596;28;20183;-56
2021/10/23 02:46:20;;;;;;;2.77;2.10;;;10.00;99.90;;;;;;5014031;28;20439;-57
2021/10/23 02:48:46;;;;;;;3.63;2.40;;;10.10;99.90;;;;;;5015484;28;20402;-56
2021/10/23 02:51:11;;;;;;;4.17;2.77;;;10.10;99.90;;;;;;5015609;28;20412;-57
2021/10/23 02:53:37;;;;;;;4.40;2.37;;;10.10;99.90;;;;;;5032620;28;20431;-54
2021/10/23 02:56:03;;;;;;;5.57;2.53;;;10.10;99.90;;;;;;5034657;28;20194;-55
2021/10/23 02:58:28;;;;;;;2.57;1.97;;;10.20;99.90;;;;;;5034671;28;20171;-54
2021/10/23 03:00:54;;;;;;;3.97;2.10;;;10.10;99.90;;;;;;5034752;28;20412;-55
2021/10/23 03:03:20;;;;;;;2.97;2.07;;;10.10;99.90;;;;;;5034252;28;20166;-55
2021/10/23 03:05:47;;;;;;;4.10;2.23;;;10.10;99.90;;;;;;5035171;28;20412;-56
2021/10/23 03:08:13;;;;;;;6.17;2.30;;;9.90;99.90;;;;;;5034324;28;20171;-54
2021/10/23 03:10:38;;;;;;;5.13;2.40;;;9.80;99.90;;;;;;5016321;28;20426;-55
2021/10/23 03:13:04;;;;;;;4.00;1.93;;;9.90;99.90;;;;;;5014845;28;20409;-54
2021/10/23 03:15:30;;;;;;;5.27;2.07;;;10.00;99.90;;;;;;5014695;28;20567;-53
2021/10/23 03:17:55;;;;;;;3.20;2.07;;;10.20;99.90;;;;;;5015080;28;20194;-53
2021/10/23 03:20:21;;;;;;;2.60;2.13;;;10.30;99.90;;;;;;5015267;28;20643;-55
2021/10/23 03:22:47;;;;;;;4.50;1.80;;;10.20;99.90;;;;;;5025481;28;20206;-54
2021/10/23 03:25:12;;;;;;;1.97;1.77;;;10.10;99.90;;;;;;5034608;28;20844;-55
2021/10/23 03:27:39;;;;;;;4.10;1.93;;;10.10;99.90;;;;;;5034158;28;20207;-57
2021/10/23 03:30:06;;;;;;;2.97;1.87;;;10.10;99.90;;;;;;5033892;28;20176;-56
2021/10/23 03:32:32;;;;;;;3.67;1.87;;;10.20;99.90;;;;;;5034170;28;20444;-57
2021/10/23 03:35:00;;;;;;;3.00;2.50;;;10.30;99.90;;;;;;5033682;28;20448;-53
2021/10/23 03:37:29;;;;;;;3.93;2.17;;;10.40;99.90;;;;;;5033113;28;20536;-57
2021/10/23 03:39:55;;;;;;;4.40;2.77;;;10.50;99.90;;;;;;5034056;28;20887;-56
2021/10/23 03:42:21;;;;;;;3.60;1.97;;;10.60;99.90;;;;;;5033427;28;20410;-56
2021/10/23 03:44:46;;;;;;;2.63;2.00;;;10.60;99.90;;;;;;5033684;28;20172;-57
2021/10/23 03:47:12;;;;;;;4.47;2.00;;;10.70;99.90;;;;;;5033914;28;20267;-57
2021/10/23 03:49:40;;;;;;;7.73;2.10;;;10.70;99.90;;;;;;5033392;28;20265;-57
2021/10/23 03:52:06;;;;;;;4.10;1.90;;;10.70;99.90;;;;;;5032850;28;20181;-58
2021/10/23 03:54:32;;;;;;;3.00;2.03;;;10.80;99.90;;;;;;5033309;28;20958;-57
2021/10/23 03:56:57;;;;;;;4.40;1.63;;;10.80;99.90;;;;;;5033481;28;20188;-57
2021/10/23 03:59:23;;;;;;;6.23;2.23;;;10.70;99.90;;;;;;5030665;28;20526;-57
2021/10/23 04:01:48;;;;;;;4.13;2.30;;;10.70;99.90;;;;;;4978641;28;20173;-56
2021/10/23 04:04:14;;;;;;;11.03;2.73;;;10.60;99.90;;;;;;4994423;28;20179;-57
2021/10/23 04:06:40;;;;;;;6.90;2.63;;;10.50;99.90;;;;;;4994039;28;20192;-54
2021/10/23 04:09:06;;;;;;;4.20;2.03;;;10.50;99.90;;;;;;4998420;28;20812;-53
2021/10/23 04:11:31;;;;;;;2.10;1.77;;;10.60;99.90;;;;;;5013860;28;20172;-57
2021/10/23 04:13:57;;;;;;;5.03;2.30;;;10.60;99.90;;;;;;5013890;28;20645;-56
2021/10/23 04:16:23;;;;;;;2.90;1.80;;;10.60;99.90;;;;;;5013831;28;20197;-56
2021/10/23 04:18:48;;;;;;;3.97;2.17;;;10.60;99.90;;;;;;5013581;28;20185;-57
2021/10/23 04:21:15;;;;;;;5.40;2.23;;;10.40;99.90;;;;;;5013716;28;20187;-56
2021/10/23 04:23:41;;;;;;;5.27;2.17;;;10.40;99.90;;;;;;5036019;28;20190;-53
2021/10/23 04:26:07;;;;;;;3.90;1.90;;;10.30;99.90;;;;;;5037218;28;20451;-54
2021/10/23 04:28:32;;;;;;;6.70;2.87;;;10.20;99.90;;;;;;5037276;28;20165;-55
2021/10/23 04:30:58;;;;;;;5.60;3.47;;;10.20;99.90;;;;;;5037227;28;20282;-56
2021/10/23 04:33:23;;;;;;;4.83;2.50;;;10.10;99.90;;;;;;5037385;28;20249;-57
2021/10/23 04:35:50;;;;;;;5.17;2.53;;;10.10;99.90;;;;;;5037232;28;20624;-56
2021/10/23 04:38:17;;;;;;;3.07;2.23;;;10.10;99.90;;;;;;5038213;28;20659;-57
2021/10/23 04:40:42;;;;;;;4.33;2.67;;;10.10;99.90;;;;;;5037261;28;20491;-56
2021/10/23 04:43:08;;;;;;;3.43;2.40;;;10.10;99.90;;;;;;5037369;28;20507;-55
2021/10/23 04:45:34;;;;;;;4.90;2.73;;;10.20;99.90;;;;;;5037114;28;20200;-56
2021/10/23 04:48:00;;;;;;;3.20;1.90;;;10.20;99.90;;;;;;5037126;28;20202;-55
2021/10/23 04:50:26;;;;;;;3.40;2.60;;;10.20;99.90;;;;;;5037162;28;20401;-57
2021/10/23 04:52:52;;;;;;;5.83;2.70;;;10.20;99.90;;;;;;5036403;28;20891;-57
2021/10/23 04:55:17;;;;;;;6.60;3.00;;;10.10;99.90;;;;;;5037005;28;20491;-55
2021/10/23 04:57:43;;;;;;;3.70;2.40;;;10.00;99.90;;;;;;5036599;28;20191;-57
2021/10/23 05:00:09;;;;;;;5.93;2.30;;;10.10;99.90;;;;;;5036882;28;20251;-56
2021/10/23 05:02:34;;;;;;;12.93;2.57;;;10.00;99.90;;;;;;5036871;28;20166;-55
2021/10/23 05:05:00;;;;;;;7.83;3.60;;;10.10;99.90;;;;;;5037605;28;20288;-57
2021/10/23 05:07:25;;;;;;;5.00;2.90;;;10.20;99.90;;;;;;5027350;28;20199;-57
2021/10/23 05:09:51;;;;;;;4.97;2.37;;;10.20;99.90;;;;;;5017098;28;20605;-56
2021/10/23 05:12:17;;;;;;;2.77;2.53;;;10.20;99.90;;;;;;5017219;28;20280;-57
2021/10/23 05:14:42;;;;;;;3.50;2.77;;;10.20;99.90;;;;;;5020050;28;20238;-57
2021/10/23 05:17:08;;;;;;;4.73;3.10;;;10.20;99.90;;;;;;5016389;28;20200;-56
2021/10/23 05:19:34;;;;;;;3.27;2.30;;;10.30;99.90;;;;;;5017630;28;20172;-56
2021/10/23 05:21:59;;;;;;;2.50;2.27;;;10.30;99.90;;;;;;5013903;28;20265;-56
2021/10/23 05:24:27;;;;;;;5.33;2.43;;;10.40;99.90;;;;;;5019616;28;20252;-57
2021/10/23 05:26:52;;;;;;;7.17;2.77;;;10.30;99.90;;;;;;5022864;28;20190;-58
2021/10/23 05:29:18;;;;;;;3.77;2.37;;;10.30;99.90;;;;;;5020978;28;20420;-56
2021/10/23 05:31:44;;;;;;;3.60;2.33;;;10.30;99.90;;;;;;5034508;28;20643;-56
2021/10/23 05:34:09;;;;;;;2.77;2.47;;;10.40;99.90;;;;;;5024047;28;20197;-57
2021/10/23 05:36:35;;;;;;;4.57;2.60;;;10.40;99.90;;;;;;5042028;23;20199;-52
2021/10/23 05:39:00;;;;;;;5.00;2.77;;;10.30;99.90;;;;;;5033744;28;20186;-49
2021/10/23 05:41:26;;;;;;;5.00;2.70;;;10.20;99.90;;;;;;5035379;28;20210;-49
2021/10/23 05:43:52;;;;;;;4.27;2.37;;;10.20;99.90;;;;;;5035587;28;20209;-50
2021/10/23 05:46:18;;;;;;;3.77;2.03;;;10.30;99.90;;;;;;5035640;28;20181;-50
2021/10/23 05:48:43;;;;;;;8.73;2.90;;;10.30;99.90;;;;;;5035277;28;20230;-50
2021/10/23 05:51:09;;;;;;;5.60;2.80;;;10.30;99.90;;;;;;5032275;28;20405;-53
2021/10/23 05:53:35;;;;;;;5.40;2.67;;;10.40;99.90;;;;;;4997652;28;20177;-56
2021/10/23 05:56:00;;;;;;;2.60;2.40;;;10.40;99.90;;;;;;4996020;28;20173;-55
2021/10/23 05:58:29;;;;;;;4.37;2.50;;;10.50;99.90;;;;;;4996287;28;20184;-50
2021/10/23 06:01:00;;;;;;;4.40;2.63;;;10.50;99.90;;;;;;5015014;28;20182;-51
2021/10/23 06:03:26;;;;;;;4.90;2.70;;;10.40;99.90;;;;;;5019269;28;20432;-52
2021/10/23 06:05:53;;;;;;;5.07;2.60;;;10.50;99.90;;;;;;5014350;28;20647;-52
2021/10/23 06:08:18;;;;;;;4.60;2.50;;;10.50;99.90;;;;;;5016372;28;20529;-57
2021/10/23 06:10:44;;;;;;;6.13;3.27;;;10.60;99.90;;;;;;5019079;28;20446;-56
2021/10/23 06:13:11;;;;;;;5.40;3.17;;;10.60;99.90;;;;;;5019679;28;20175;-55
2021/10/23 06:15:36;;;;;;;5.10;2.93;;;10.70;99.90;;;;;;5015695;28;20199;-53
2021/10/23 06:18:03;;;;;;;6.57;3.93;;;10.60;99.90;;;;;;5015311;28;20956;-51
2021/10/23 06:20:29;;;;;;;6.10;2.53;;;10.60;99.90;;;;;;5015494;28;20222;-55
2021/10/23 06:22:55;;;;;;;3.90;2.40;;;10.50;99.90;;;;;;5014639;28;20885;-54
2021/10/23 06:25:22;;;;;;;6.37;2.70;;;10.50;99.90;;;;;;5015420;28;20452;-54
2021/10/23 06:27:48;;;;;;;6.13;2.30;;;10.50;99.90;;;;;;5015302;28;20299;-55
2021/10/23 06:30:14;;;;;;;5.67;2.60;;;10.30;99.90;;;;;;5018578;28;20984;-55
2021/10/23 06:32:51;;;;;;;3.77;2.70;;;10.30;99.90;;;;;;5034781;28;20448;-54
2021/10/23 06:35:17;;;;;;;4.50;2.80;;;10.40;99.90;;;;;;5016901;28;20966;-55
2021/10/23 06:37:43;;;;;;;2.57;2.03;;;10.30;99.90;;;;;;5034377;28;20820;-57
2021/10/23 06:40:10;;;;;;;5.03;2.47;;;10.40;99.90;;;;;;5034679;28;20401;-55
2021/10/23 06:42:39;;;;;;;6.57;2.80;;;10.40;99.90;;;;;;5034655;28;20435;-53
2021/10/23 06:45:05;;;;;;;3.23;2.13;;;10.40;99.90;;;;;;5034351;28;21031;-55
2021/10/23 06:47:30;;;;;;;4.50;2.87;;;10.50;99.90;;;;;;5034630;28;20475;-56
2021/10/23 06:49:58;;;;;;;7.30;2.93;;;10.60;99.90;;;;;;5034641;28;20778;-51
2021/10/23 06:52:24;;;;;;;4.17;2.40;;;10.70;99.90;;;;;;5034319;28;20191;-55
2021/10/23 06:54:49;;;;;;;4.63;3.37;;;10.80;99.90;;;;;;5033951;28;20993;-52
2021/10/23 06:57:15;;;;;;;3.70;2.70;;;10.80;99.90;;;;;;5034386;28;20187;-53
2021/10/23 06:59:40;;;;;;;6.43;2.77;;;11.00;99.90;;;;;;5034235;28;20520;-53
2021/10/23 07:02:06;;;;;;;3.33;2.30;;;11.10;99.90;;;;;;5027939;28;20175;-51
2021/10/23 07:04:31;;;;;;;4.83;2.50;;;11.10;99.90;;;;;;5014200;28;20187;-51
2021/10/23 07:06:57;;;;;;;6.70;3.10;;;11.20;99.90;;;;;;5014528;28;20196;-53
2021/10/23 07:09:23;;;;;;;5.93;2.90;;;11.30;99.90;;;;;;5013965;28;20168;-49
2021/10/23 07:11:48;;;;;;;5.60;2.40;;;11.30;99.90;;;;;;5014376;28;20176;-54
2021/10/23 07:14:14;;;;;;;3.73;3.10;;;11.30;99.90;;;;;;5014071;28;20203;-55
2021/10/23 07:16:40;;;;;;;5.20;2.23;;;11.40;99.90;;;;;;5012595;28;20259;-51
2021/10/23 07:19:06;;;;;;;3.50;2.30;;;11.40;99.90;;;;;;5013966;28;20160;-58
2021/10/23 07:21:31;;;;;;;4.93;2.60;;;11.40;99.90;;;;;;5014220;28;20398;-55
2021/10/23 07:23:59;;;;;;;5.43;2.80;;;11.40;99.90;;;;;;5023759;28;20203;-56
2021/10/23 07:26:25;;;;;;;5.43;2.80;;;11.50;99.90;;;;;;5034268;28;20167;-54
2021/10/23 07:28:51;;;;;;;4.77;2.60;;;11.70;99.90;;;;;;5033720;28;20413;-52
2021/10/23 07:31:17;;;;;;;5.20;2.30;;;11.80;99.90;;;;;;5033932;28;20426;-54
2021/10/23 07:33:43;;;;;;;3.73;2.53;;;11.80;99.90;;;;;;5034019;28;20412;-52
2021/10/23 07:36:08;;;;;;;3.97;2.60;;;11.80;99.90;;;;;;5033992;28;20174;-55
2021/10/23 07:38:35;;;;;;;3.73;2.70;;;11.80;99.90;;;;;;5033303;28;20278;-51
2021/10/23 07:41:01;;;;;;;4.73;3.03;;;11.80;99.90;;;;;;5033530;28;20167;-49
2021/10/23 07:43:27;;;;;;;3.80;2.60;;;11.70;99.90;;;;;;5033410;28;20399;-53
2021/10/23 07:45:52;;;;;;;4.43;3.00;;;11.70;99.90;;;;;;5033548;28;20206;-55
2021/10/23 07:48:19;;;;;;;4.70;2.60;;;11.60;99.90;;;;;;5025269;28;20195;-50
2021/10/23 07:50:48;;;;;;;2.67;2.40;;;11.50;99.90;;;;;;4996297;28;20184;-50
2021/10/23 07:53:16;;;;;;;4.13;2.57;;;11.60;99.90;;;;;;5018088;28;20471;-49
2021/10/23 07:55:41;;;;;;;3.50;2.80;;;11.50;99.90;;;;;;5033186;28;20450;-55
2021/10/23 07:58:07;;;;;;;4.93;3.20;;;11.10;99.90;;;;;;5016766;28;20488;-55
2021/10/23 08:00:33;;;;;;;4.63;2.60;;;11.00;99.90;;;;;;5022705;28;20679;-54
2021/10/23 08:03:02;;;;;;;4.10;2.50;;;11.00;99.90;;;;;;5033092;28;20167;-53
2021/10/23 08:05:34;;;;;;;5.77;2.50;;;11.00;99.90;;;;;;5033384;28;20175;-52
2021/10/23 08:08:00;;;;;;;4.20;2.73;;;11.00;99.90;;;;;;5032968;28;20453;-53
2021/10/23 08:10:26;;;;;;;3.73;2.60;;;10.80;99.90;;;;;;5016676;28;20821;-55
2021/10/23 08:12:53;;;;;;;2.97;2.40;;;10.70;99.90;;;;;;5013132;28;20409;-57
2021/10/23 08:15:19;;;;;;;4.13;2.83;;;10.90;99.90;;;;;;5012911;28;21043;-54
2021/10/23 08:17:45;;;;;;;6.17;2.60;;;11.00;99.90;;;;;;5012914;28;20476;-56
2021/10/23 08:20:11;;;;;;;3.87;2.57;;;10.90;99.90;;;;;;5013637;28;20410;-56
2021/10/23 08:22:39;;;;;;;5.10;3.03;;;11.00;99.90;;;;;;5013410;28;20218;-55
2021/10/23 08:25:07;;;;;;;3.33;2.53;;;11.20;99.90;;;;;;5012709;28;20411;-57
2021/10/23 08:27:34;;;;;;;5.40;2.93;;;11.20;99.90;;;;;;5013300;28;20537;-55
2021/10/23 08:30:01;;;;;;;5.37;3.10;;;11.40;99.90;;;;;;5019380;28;20424;-52
2021/10/23 08:32:27;;;;;;;5.20;3.00;;;11.50;99.90;;;;;;5033057;28;20781;-56
2021/10/23 08:34:55;;;;;;;7.60;2.87;;;11.50;99.90;;;;;;5032997;28;20551;-57
2021/10/23 08:37:20;;;;;;;3.13;2.53;;;11.70;99.90;;;;;;5033020;28;20214;-55
2021/10/23 08:39:46;;;;;;;4.70;2.57;;;11.90;99.90;;;;;;5032674;28;20770;-55
2021/10/23 08:42:12;;;;;;;7.30;3.27;;;11.90;99.90;;;;;;5032632;28;20179;-56
2021/10/23 08:44:40;;;;;;;4.80;2.23;;;11.90;99.90;;;;;;5032407;28;20175;-55
2021/10/23 08:47:06;;;;;;;6.10;3.20;;;12.00;99.90;;;;;;5015304;28;20430;-55
2021/10/23 08:49:32;;;;;;;3.20;2.33;;;11.70;99.90;;;;;;5013035;28;20419;-55
2021/10/23 08:51:58;;;;;;;5.37;2.87;;;11.60;99.90;;;;;;5013177;28;20413;-51
2021/10/23 08:54:25;;;;;;;5.73;2.80;;;11.70;99.90;;;;;;5012748;28;20905;-56
2021/10/23 08:56:51;;;;;;;4.73;3.00;;;11.70;99.90;;;;;;5012957;28;20442;-55
2021/10/23 08:59:16;;;;;;;6.73;2.20;;;11.70;99.90;;;;;;5013081;28;20491;-56
2021/10/23 09:01:42;;;;;;;5.70;2.93;;;11.70;99.90;;;;;;5032295;28;20575;-56
2021/10/23 09:04:08;;;;;;;4.27;2.47;;;11.90;99.90;;;;;;5032795;28;20179;-55
2021/10/23 09:06:39;;;;;;;5.20;2.50;;;12.10;99.90;;;;;;5032709;28;20413;-52
2021/10/23 09:09:13;;;;;;;6.73;2.50;;;12.40;99.90;;;;;;5035058;28;20597;-57
2021/10/23 09:11:44;;;;;;;11.20;3.33;;;12.40;99.90;;;;;;5036477;28;20494;-54
2021/10/23 09:14:24;;;;;;;3.70;2.80;;;12.30;99.90;;;;;;5036222;28;20453;-55
2021/10/23 09:17:01;;;;;;;4.27;3.00;;;12.20;99.90;;;;;;5036501;28;20424;-55
2021/10/23 09:19:44;;;;;;;6.60;3.27;;;12.40;99.90;;;;;;5036135;28;20451;-54
2021/10/23 09:22:27;;;;;;;4.87;2.93;;;12.40;99.90;;;;;;5036978;28;20751;-55
2021/10/23 09:25:27;;;;;;;4.10;3.10;;;12.40;99.90;;;;;;5036304;28;20387;-52
2021/10/23 09:28:09;;;;;;;4.93;3.30;;;12.20;99.90;;;;;;5037464;28;20782;-56
2021/10/23 09:30:46;;;;;;;3.67;3.07;;;12.40;99.90;;;;;;5036967;28;20926;-54
2021/10/23 09:33:14;;;;;;;6.40;3.30;;;12.50;99.90;;;;;;5037144;28;20370;-51
2021/10/23 09:35:45;;;;;;;4.67;2.40;;;12.60;99.90;;;;;;5036132;28;20460;-54
2021/10/23 09:38:17;;;;;;;3.70;3.00;;;12.90;99.90;;;;;;5035562;28;20940;-54
2021/10/23 09:40:44;;;;;;;3.93;2.60;;;13.10;99.90;;;;;;5035893;28;20401;-57
2021/10/23 09:43:38;;;;;;;3.33;3.00;;;13.30;99.90;;;;;;5005181;28;20491;-56
2021/10/23 09:46:10;;;;;;;5.63;2.90;;;13.40;99.90;;;;;;5000762;28;20934;-55
2021/10/23 09:48:38;;;;;;;8.93;3.43;;;13.50;99.90;;;;;;5015978;28;20425;-51
2021/10/23 09:51:19;;;;;;;4.13;3.10;;;13.50;99.90;;;;;;5015959;28;20442;-56
2021/10/23 09:53:55;;;;;;;7.30;3.50;;;13.50;99.90;;;;;;5015808;28;20399;-53
2021/10/23 09:56:32;;;;;;;3.83;2.37;;;13.50;99.90;;;;;;5015906;28;20762;-54
2021/10/23 09:58:58;;;;;;;5.33;3.03;;;13.60;99.90;;;;;;5014423;28;20839;-54
2021/10/23 10:01:26;;;;;;;8.13;3.50;;;13.30;99.90;;;;;;5033272;28;20798;-54
2021/10/23 10:03:54;;;;;;;6.00;3.23;;;13.30;99.90;;;;;;5035769;28;20793;-54
2021/10/23 10:06:20;;;;;;;5.43;3.13;;;13.30;99.90;;;;;;5035494;28;20405;-57
2021/10/23 10:08:50;;;;;;;5.47;3.53;;;13.50;99.90;;;;;;5035209;28;20824;-58
2021/10/23 10:11:17;;;;;;;4.33;3.00;;;13.50;99.90;;;;;;5035185;28;20437;-56
2021/10/23 10:13:43;;;;;;;3.00;2.60;;;13.50;99.90;;;;;;5035037;28;20408;-53
2021/10/23 10:16:10;;;;;;;7.17;3.40;;;13.40;99.90;;;;;;5034754;28;20415;-55
2021/10/23 10:18:39;;;;;;;5.50;3.20;;;13.50;99.90;;;;;;5035046;28;20208;-56
2021/10/23 10:21:07;;;;;;;4.70;3.10;;;13.70;99.90;;;;;;5034549;28;20398;-56
2021/10/23 10:23:42;;;;;;;5.20;3.13;;;14.00;99.90;;;;;;5035068;28;20451;-58
2021/10/23 10:26:35;;;;;;;5.20;3.00;;;14.30;99.90;;;;;;5035134;28;20382;-56
2021/10/23 10:29:24;;;;;;;4.60;3.17;;;14.40;99.90;;;;;;5035131;28;20463;-54
2021/10/23 10:37:43;;;;;;;7.03;4.53;;;14.00;99.90;;;;;;5034491;28;20816;-56
2021/10/23 10:43:01;;;;;;;6.37;4.27;;;13.50;99.90;;;;;;5035297;28;20848;-55
2021/10/23 10:45:43;;;;;;;7.70;4.37;;;13.20;99.90;;;;;;5003905;28;20408;-55
2021/10/23 10:48:37;;;;;;;8.23;4.67;;;13.10;99.90;;;;;;5014865;28;20426;-55
2021/10/23 10:51:07;;;;;;;7.33;4.47;;;12.80;99.90;;;;;;5014902;28;20396;-55
2021/10/23 10:53:34;;;;;;;7.30;4.33;;;12.80;99.90;;;;;;5014777;28;20410;-53
2021/10/23 10:55:59;;;;;;;7.97;4.10;;;12.90;99.90;;;;;;5015106;28;20454;-55
2021/10/23 10:58:50;;;;;;;6.97;4.47;;;13.10;99.90;;;;;;5014522;28;20419;-55
2021/10/23 11:01:22;;;;;;;7.40;4.20;;;13.90;99.90;;;;;;5030911;28;20171;-54
2021/10/23 11:04:10;;;;;;;6.90;3.70;;;15.10;99.90;;;;;;5034626;28;20415;-57
2021/10/23 11:06:39;;;;;;;5.00;3.20;;;16.90;99.90;;;;;;5034018;28;20383;-55
2021/10/23 11:09:14;;;;;;;7.33;3.50;;;18.80;98.20;;;;;;5033569;28;20394;-57
2021/10/23 11:11:52;;;;;;;5.63;3.00;;;19.80;96.00;;;;;;5033739;28;20394;-52
2021/10/23 11:14:21;;;;;;;4.97;3.23;;;20.30;93.80;;;;;;5034000;28;20437;-53
2021/10/23 11:16:55;;;;;;;5.40;3.10;;;20.30;93.40;;;;;;5033619;28;20556;-56
2021/10/23 11:19:40;;;;;;;4.07;3.10;;;21.00;92.60;;;;;;5033675;28;20969;-54
2021/10/23 11:22:29;;;;;;;5.20;3.20;;;21.50;91.40;;;;;;5033954;28;20398;-56
2021/10/23 11:25:08;;;;;;;4.57;3.00;;;21.10;90.40;;;;;;5033557;28;20870;-56
2021/10/23 11:27:40;;;;;;;7.00;3.07;;;21.80;90.30;;;;;;5033875;28;20414;-57
2021/10/23 11:30:14;;;;;;;8.80;3.60;;;23.60;85.10;;;;;;5033529;28;20771;-55
2021/10/23 11:32:44;;;;;;;4.73;2.80;;;23.50;83.40;;;;;;5033103;28;20394;-52
2021/10/23 11:35:10;;;;;;;3.53;2.90;;;22.70;82.60;;;;;;5033445;28;20457;-54
2021/10/23 11:37:37;;;;;;;4.67;2.70;;;24.50;80.60;;;;;;5058458;23;22442;-52
2021/10/23 11:40:08;;;;;;;5.10;2.67;;;24.40;73.60;;;;;;5008256;28;20454;-50
2021/10/23 11:42:35;;;;;;;2.80;2.40;;;23.10;75.70;;;;;;4993652;28;20400;-47
2021/10/23 11:45:12;;;;;;;6.13;2.90;;;22.50;73.50;;;;;;4994338;28;20408;-48
2021/10/23 11:47:38;;;;;;;4.33;2.30;;;23.00;74.80;;;;;;4994411;28;20419;-48
2021/10/23 11:50:06;;;;;;;3.27;2.47;;;24.50;68.20;;;;;;4996732;28;20415;-46
2021/10/23 11:52:36;;;;;;;3.67;1.73;;;24.60;66.40;;;;;;4994202;28;20412;-55
2021/10/23 11:55:02;;;;;;;2.40;2.10;;;23.80;63.10;;;;;;4993820;28;20972;-55
2021/10/23 11:57:42;;;;;;;2.70;1.73;;;23.40;66.20;;;;;;4994763;28;20949;-53
2021/10/23 12:00:15;;;;;;;1.93;1.60;;;22.70;69.60;;;;;;4994327;28;20407;-55
2021/10/23 12:02:49;;;;;;;5.10;1.60;;;23.30;65.50;;;;;;4994006;28;20406;-53
2021/10/23 12:05:36;;;;;;;3.20;1.77;;;24.30;61.90;;;;;;4994330;28;20738;-54
2021/10/23 12:08:30;;;;;;;3.73;2.10;;;24.90;59.90;;;;;;4993992;28;20415;-56
2021/10/23 12:11:20;;;;;;;2.57;2.30;;;25.20;61.60;;;;;;4976532;28;20392;-53
2021/10/23 12:14:04;;;;;;;6.30;2.60;;;23.60;65.50;;;;;;4993870;28;20388;-52
2021/10/23 12:16:49;;;;;;;4.10;3.33;;;24.50;65.10;;;;;;4993426;28;20395;-49
2021/10/23 12:19:33;;;;;;;3.87;2.10;;;24.30;63.90;;;;;;4993730;28;20404;-55
2021/10/23 12:22:05;;;;;;;4.00;2.53;;;23.50;65.00;;;;;;4994364;28;20388;-54
2021/10/23 12:24:38;;;;;;;1.90;1.70;;;23.50;63.30;;;;;;4994349;28;20494;-53
2021/10/23 12:27:03;;;;;;;2.30;1.80;;;21.30;65.10;;;;;;4994437;28;20389;-55
2021/10/23 12:29:38;;;;;;;3.87;2.20;;;20.30;68.20;;;;;;5033240;28;20822;-49
2021/10/23 12:32:20;;;;;;;3.70;2.07;;;18.80;71.40;;;;;;5033677;28;20170;-51
2021/10/23 12:34:48;;;;;;;3.90;2.10;;;17.50;75.40;;;;;;5037043;28;20526;-54
2021/10/23 12:37:14;;;;;;;3.40;2.20;;;16.50;79.00;;;;;;5036956;28;20869;-51
2021/10/23 12:39:40;;;;;;;3.23;1.60;;;16.10;80.20;;;;;;5035383;28;20411;-49
2021/10/23 12:42:06;;;;;;;2.80;1.90;;;16.30;81.50;;;;;;5040631;28;20396;-55
2021/10/23 12:44:31;;;;;;;2.87;2.00;;;16.30;81.20;;;;;;5045057;28;20212;-55
2021/10/23 12:46:57;;;;;;;2.30;2.00;;;16.00;80.80;;;;;;5038375;28;20255;-54
2021/10/23 12:49:24;;;;;;;2.50;1.93;;;16.00;81.80;;;;;;5037164;28;20172;-48
2021/10/23 12:51:50;;;;;;;3.20;2.23;;;15.80;83.00;;;;;;5037289;28;20171;-53
2021/10/23 12:54:17;;;;;;;3.03;2.57;;;16.10;83.60;;;;;;5037914;28;20965;-51
2021/10/23 12:56:46;;;;;;;2.83;2.30;;;15.80;82.60;;;;;;5037341;28;20448;-53
2021/10/23 12:59:12;;;;;;;3.40;1.97;;;15.70;82.90;;;;;;5036197;28;20425;-55
2021/10/23 13:01:39;;;;;;;2.90;2.33;;;15.70;83.00;;;;;;5037168;28;20873;-55
2021/10/23 13:04:05;;;;;;;3.70;2.20;;;15.30;82.80;;;;;;5036992;28;20417;-54